»·PEaware :: SCX154 KSFO-KRNO

SCX154 :: KSFO-KRNO

FLIGHT INFORMATION

Flight Status: Arrived
Operator:
Sun Country Airlines
More flights by this operator :: More flights under this callsign
Pilot: Ben F. (13029)
Aircraft: BOEING 737-800
(B738)
More flights by this aircraft type
Origin: KSFO San Francisco Intl
United States
Destination: KRNO Reno/Tahoe Intl
United States
More flights between these airports :: More routes between these airports
Route: TRUKN2 ORRCA HOBOA WALAR
File this flight plan on PilotEdge
Remarks: RMK / SIMBRIEF
Altitude:
(Current/Filed)
29,000ft
Speed:
(Current/Filed)
421kts
Departed: 03-Apr-20 10:11 AM
Arrived: 03-Apr-20 10:52 AM
Distance/Time
Traveled:
167nm/0:40
Distance/Time
To Go:
Arrived

Flight Plot

Page will automatically refresh every two minutes.

Flight plan parsing failed; only flown route is shown


Map Options




Map Legend


Flown Route
Filed Route
Departure Airport
Arrival Airport
Navaid (VOR, NDB)
Fix

Horizontal Profiles

Position Reports

Time Latitude Longitude Heading Altitude Ground
Speed
03-Apr-20 09:39 37.617702 -122.388841 159 33ft 0kts
03-Apr-20 09:43 37.617702 -122.388841 159 33ft 0kts
03-Apr-20 09:44 37.617702 -122.388841 159 33ft 0kts
03-Apr-20 09:45 37.617702 -122.388841 159 33ft 0kts
03-Apr-20 09:46 37.617702 -122.388841 159 33ft 0kts
03-Apr-20 09:47 37.617702 -122.388841 159 33ft 0kts
03-Apr-20 09:48 37.617702 -122.388841 159 33ft 0kts
03-Apr-20 09:49 37.617702 -122.388841 159 33ft 0kts
03-Apr-20 09:50 37.617702 -122.388841 159 33ft 0kts
03-Apr-20 09:51 37.617702 -122.388841 159 33ft 0kts
03-Apr-20 09:52 37.617702 -122.388841 159 33ft 0kts
03-Apr-20 09:53 37.617702 -122.388841 159 33ft 0kts
03-Apr-20 09:54 37.617702 -122.388841 159 33ft 0kts
03-Apr-20 09:55 37.617702 -122.388841 159 33ft 0kts
03-Apr-20 09:56 37.617702 -122.388841 159 33ft 0kts
03-Apr-20 09:57 37.617702 -122.388841 159 33ft 0kts
03-Apr-20 09:58 37.617703 -122.388841 159 34ft 0kts
03-Apr-20 09:59 37.618174 -122.388935 185 34ft 2kts
03-Apr-20 10:00 37.618640 -122.388731 213 34ft 0kts
03-Apr-20 10:01 37.618640 -122.388731 213 33ft 0kts
03-Apr-20 10:02 37.618640 -122.388731 213 33ft 0kts
03-Apr-20 10:03 37.618512 -122.389190 273 34ft 8kts
03-Apr-20 10:04 37.621989 -122.391216 30 33ft 16kts
03-Apr-20 10:05 37.621302 -122.385927 118 33ft 20kts
03-Apr-20 10:06 37.616457 -122.379738 206 33ft 33kts
03-Apr-20 10:07 37.609058 -122.384753 170 33ft 16kts
03-Apr-20 10:08 37.608518 -122.383982 117 33ft 0kts
03-Apr-20 10:09 37.608268 -122.382761 61 32ft 14kts
03-Apr-20 10:10 37.635163 -122.364786 25 1127ft 162kts
03-Apr-20 10:11 37.664000 -122.318866 56 3403ft 189kts
03-Apr-20 10:12 37.698181 -122.251894 54 5513ft 264kts
03-Apr-20 10:13 37.750361 -122.184855 32 9229ft 277kts
03-Apr-20 10:14 37.817739 -122.124171 31 12017ft 318kts
03-Apr-20 10:15 37.891273 -122.057540 30 15262ft 332kts
03-Apr-20 10:16 37.967715 -121.988088 30 18218ft 346kts
03-Apr-20 10:17 38.047060 -121.915835 30 19150ft 348kts
03-Apr-20 10:18 38.127200 -121.842731 29 21351ft 361kts
03-Apr-20 10:19 38.209857 -121.767093 29 23782ft 374kts
03-Apr-20 10:20 38.295349 -121.688627 28 25999ft 385kts
03-Apr-20 10:21 38.382373 -121.608477 28 28314ft 386kts
03-Apr-20 10:22 38.466757 -121.523595 37 29148ft 386kts
03-Apr-20 10:23 38.542614 -121.425587 36 29141ft 386kts
03-Apr-20 10:24 38.617623 -121.329752 37 29131ft 386kts
03-Apr-20 10:25 38.682355 -121.246769 37 29126ft 387kts
03-Apr-20 10:26 38.760222 -121.146810 38 29108ft 411kts
03-Apr-20 10:27 38.837911 -121.046392 38 29099ft 384kts
03-Apr-20 10:28 38.914760 -120.947047 39 29089ft 393kts
03-Apr-20 10:29 38.990441 -120.848773 40 27248ft 384kts
03-Apr-20 10:30 39.064657 -120.752117 40 25284ft 376kts
03-Apr-20 10:31 39.137599 -120.656818 40 23338ft 370kts
03-Apr-20 10:32 39.208859 -120.563423 40 21424ft 363kts
03-Apr-20 10:33 39.278759 -120.471527 40 19533ft 356kts
03-Apr-20 10:34 39.347432 -120.380973 41 17629ft 350kts
03-Apr-20 10:35 39.414187 -120.291390 45 16040ft 335kts
03-Apr-20 10:36 39.472785 -120.201113 45 16009ft 338kts
03-Apr-20 10:37 39.534297 -120.110880 46 16009ft 334kts
03-Apr-20 10:38 39.594936 -120.019867 46 16008ft 335kts
03-Apr-20 10:39 39.655735 -119.928388 46 16009ft 335kts
03-Apr-20 10:40 39.733021 -119.881966 354 15259ft 308kts
03-Apr-20 10:41 39.816761 -119.887878 353 12972ft 301kts
03-Apr-20 10:42 39.886674 -119.849804 75 10061ft 289kts
03-Apr-20 10:43 39.844726 -119.776598 164 9694ft 243kts
03-Apr-20 10:44 39.783788 -119.768401 180 9047ft 215kts
03-Apr-20 10:45 39.726580 -119.768186 181 8992ft 207kts
03-Apr-20 10:46 39.705524 -119.768288 180 8194ft 212kts
03-Apr-20 10:48 39.581802 -119.768655 180 6121ft 171kts
03-Apr-20 10:49 39.536628 -119.769096 179 4976ft 154kts
03-Apr-20 10:50 39.499483 -119.769251 179 4420ft 48kts
03-Apr-20 10:51 39.497391 -119.770502 269 4420ft 6kts
03-Apr-20 10:52 39.500931 -119.771498 0 4420ft 25kts
03-Apr-20 10:53 39.505911 -119.772907 269 4420ft 0kts
03-Apr-20 10:54 39.506106 -119.772889 21 4420ft 6kts
03-Apr-20 10:55 39.506532 -119.772786 0 4420ft 0kts

Navigation Log

Ident Type
Flight plan parsing failed, navigation log unavailable